AKDT,Max TemperatureF,Mean TemperatureF,Min TemperatureF,Max Dew PointF,MeanDew PointF,Min DewpointF,Max Humidity, Mean Humidity, Min Humidity, Max Sea Level PressureIn, Mean Sea Level PressureIn, Min Sea Level PressureIn, Max VisibilityMiles, Mean VisibilityMiles, Min VisibilityMiles, Max Wind SpeedMPH, Mean Wind SpeedMPH, Max Gust SpeedMPH,PrecipitationIn, CloudCover, Events, WindDirDegrees
2013-10-1,46,36,27,31,28,24,92,73,41,29.87,29.77,29.65,10,10,10,5,1,,0.00,7,,5
2013-10-2,48,39,30,34,31,27,85,73,55,29.92,29.90,29.87,10,10,10,13,6,18,0.00,6,,42
2013-10-3,44,36,28,31,27,25,96,73,46,29.88,29.71,29.56,10,10,10,8,4,,0.00,6,,3
2013-10-4,48,38,28,36,31,27,92,76,37,29.76,29.65,29.56,10,10,2,5,2,,0.00,7,Rain,331
2013-10-5,46,37,28,37,33,26,97,89,65,29.83,29.79,29.71,10,10,10,8,3,,0.01,6,Rain,331
2013-10-6,43,35,27,37,33,26,97,90,65,29.75,29.68,29.59,10,10,4,8,3,,0.08,6,Rain,321
2013-10-7,45,34,24,34,29,24,96,82,48,29.91,29.80,29.62,10,9,2,6,1,,0.01,3,Rain,122
2013-10-8,45,39,33,38,32,27,97,71,43,29.83,29.36,28.93,10,10,7,29,17,44,0.08,7,Rain,136
2013-10-9,46,36,27,35,32,25,100,84,50,29.74,29.28,28.92,10,10,6,7,2,,0.00,7,Rain,341
2013-10-10,41,29,17,32,25,16,92,81,50,29.83,29.80,29.75,10,10,10,17,4,26,0.00,3,,149
2013-10-11,48,36,25,33,31,30,86,69,41,29.96,29.88,29.80,10,10,10,22,12,33,0.00,4,,149
2013-10-12,48,42,37,32,30,28,67,57,37,29.94,29.91,29.85,10,10,10,28,17,36,0.00,3,,156
2013-10-13,46,42,37,38,31,27,79,65,51,29.83,29.66,29.53,10,10,10,22,9,31,0.00,6,Rain,87
2013-10-14,48,40,35,32,29,28,79,62,35,30.09,29.93,29.79,10,10,10,24,15,34,0.00,1,,162
2013-10-15,48,42,37,32,31,29,68,58,44,30.20,30.14,30.10,10,10,10,28,20,43,0.00,3,,160
2013-10-16,51,45,39,34,32,31,70,58,42,30.29,30.25,30.20,10,10,10,26,19,41,0.00,0,,158
2013-10-17,48,42,36,41,34,30,93,70,42,30.20,30.05,29.93,10,10,7,25,11,32,0.12,4,Rain,144
2013-10-18,50,44,37,38,34,29,71,63,44,29.91,29.83,29.79,10,10,10,24,17,34,0.01,1,,165
2013-10-19,53,46,39,37,30,20,70,53,18,29.77,29.62,29.47,10,10,10,26,15,36,0.00,5,,152
2013-10-20,46,40,32,29,27,24,82,57,35,30.01,29.89,29.77,10,10,10,24,15,32,0.00,3,,161
2013-10-21,46,36,26,30,28,24,89,69,34,30.14,30.07,30.00,10,10,10,15,9,18,0.00,4,,157
2013-10-22,45,33,19,28,23,17,89,67,31,30.22,30.17,30.12,10,10,10,9,6,,0.00,2,,165
2013-10-23,32,22,12,24,16,9,96,85,74,30.09,29.91,29.77,10,10,10,8,3,,0.00,0,,308
2013-10-24,39,22,8,26,17,5,92,76,56,30.04,29.97,29.86,10,10,10,14,5,,0.00,3,,59
2013-10-25,39,29,19,36,32,26,100,87,54,30.11,29.95,29.85,10,6,1,17,6,26,0.08,7,Rain,183
2013-10-26,37,30,24,34,28,22,96,89,63,30.61,30.42,30.06,10,10,4,8,2,,0.03,2,Rain,321
2013-10-27,48,36,27,39,31,23,92,81,65,30.52,30.19,29.82,10,10,10,23,7,40,0.00,6,,104
2013-10-28,55,43,31,42,37,32,83,64,43,29.79,29.46,29.29,10,10,10,33,24,45,0.03,4,Rain,161
2013-10-29,46,40,36,32,29,27,79,66,36,29.57,29.52,29.42,10,10,10,21,14,32,0.00,1,,166
2013-10-30,39,32,26,31,26,22,92,67,42,29.47,29.28,29.18,10,10,10,12,8,,0.00,7,,34
2013-10-31,37,34,30,30,28,24,92,82,71,29.60,29.42,29.27,10,10,10,7,4,,0.00,6,,10